createdAt,value
2019-05-14T00:01:06.097Z,41.57
2019-05-14T00:03:36.516Z,39.10
2019-05-14T00:06:06.977Z,37.27
2019-05-14T00:08:37.408Z,40.50
2019-05-14T00:11:07.959Z,54.03
2019-05-14T00:13:38.382Z,59.90
2019-05-14T00:16:08.877Z,51.42
2019-05-14T00:18:39.226Z,55.23
2019-05-14T00:21:12.026Z,58.78
2019-05-14T00:23:42.156Z,66.10
2019-05-14T00:26:12.721Z,66.13
2019-05-14T00:28:43.131Z,69.80
2019-05-14T00:31:13.587Z,96.83
2019-05-14T00:33:44.876Z,91.42
2019-05-14T00:36:15.357Z,84.47
2019-05-14T00:38:45.996Z,79.97
2019-05-14T00:41:16.551Z,71.13
2019-05-14T00:43:46.979Z,66.90
2019-05-14T00:46:17.469Z,63.83
2019-05-14T00:48:47.904Z,59.33
2019-05-14T00:51:18.392Z,56.02
2019-05-14T00:53:48.797Z,58.02
2019-05-14T00:56:21.447Z,62.33
2019-05-14T00:58:52.126Z,69.83
2019-05-14T01:01:22.841Z,66.00
2019-05-14T01:03:53.268Z,65.10
2019-05-14T01:06:23.761Z,66.17
2019-05-14T01:08:54.205Z,59.37
2019-05-14T01:11:24.705Z,65.63
2019-05-14T01:13:55.127Z,62.10
2019-05-14T01:16:25.639Z,58.83
2019-05-14T01:18:56.079Z,58.50
2019-05-14T01:21:26.585Z,58.60
2019-05-14T01:23:57.039Z,51.42
2019-05-14T01:26:27.531Z,45.93
2019-05-14T01:28:57.957Z,38.47
2019-05-14T01:31:28.444Z,44.83
2019-05-14T01:34:01.989Z,40.93
2019-05-14T01:36:32.143Z,41.17
2019-05-14T01:39:02.833Z,40.47
2019-05-14T01:41:33.399Z,43.80
2019-05-14T01:44:03.809Z,35.67
2019-05-14T01:46:34.304Z,39.37
2019-05-14T01:49:04.723Z,39.67
2019-05-14T01:51:35.203Z,43.67
2019-05-14T01:54:05.611Z,40.23
2019-05-14T01:56:36.084Z,44.17
2019-05-14T01:59:06.526Z,51.80
2019-05-14T02:01:37.021Z,47.07
2019-05-14T02:04:07.459Z,44.73
2019-05-14T02:06:37.952Z,49.20
2019-05-14T02:09:08.501Z,52.93
2019-05-14T02:11:41.292Z,60.97
2019-05-14T02:14:11.760Z,64.30
2019-05-14T02:16:42.467Z,63.67
2019-05-14T02:19:12.895Z,61.47
2019-05-14T02:21:43.415Z,71.27
2019-05-14T02:24:13.796Z,81.07
2019-05-14T02:26:44.369Z,73.90
2019-05-14T02:29:14.823Z,76.50
2019-05-14T02:31:45.302Z,68.00
2019-05-14T02:34:19.569Z,69.90
2019-05-14T02:36:49.708Z,78.70
2019-05-14T02:39:20.148Z,61.87
2019-05-14T02:41:50.764Z,64.37
2019-05-14T02:44:21.213Z,69.22
2019-05-14T02:46:51.742Z,62.77
2019-05-14T02:49:22.201Z,67.42
2019-05-14T02:51:53.712Z,64.33
2019-05-14T02:54:25.206Z,59.90
2019-05-14T02:56:55.700Z,72.95
2019-05-14T02:59:26.285Z,62.83
2019-05-14T03:01:59.161Z,54.50
2019-05-14T03:04:30.190Z,54.77
2019-05-14T03:07:01.076Z,47.83
2019-05-14T03:09:31.663Z,48.00
2019-05-14T03:12:02.192Z,49.50
2019-05-14T03:14:32.772Z,44.98
2019-05-14T03:17:03.280Z,48.30
2019-05-14T03:19:33.780Z,49.60
2019-05-14T03:22:04.309Z,45.12
2019-05-14T03:24:34.798Z,55.30
2019-05-14T03:27:05.546Z,55.23
2019-05-14T03:29:39.440Z,56.08
2019-05-14T03:32:12.739Z,49.10
2019-05-14T03:34:43.869Z,50.58
2019-05-14T03:37:14.322Z,43.42
2019-05-14T03:39:45.070Z,46.48
2019-05-14T03:42:19.031Z,45.20
2019-05-14T03:44:49.052Z,45.40
2019-05-14T03:47:19.906Z,47.95
2019-05-14T03:49:50.378Z,52.15
2019-05-14T03:52:20.886Z,59.63
2019-05-14T03:54:51.356Z,53.78
2019-05-14T03:57:21.860Z,56.83
2019-05-14T03:59:52.327Z,57.85
2019-05-14T04:02:23.266Z,45.45
2019-05-14T04:04:53.801Z,41.83
2019-05-14T04:07:25.905Z,40.48
2019-05-14T04:09:59.490Z,42.65
2019-05-14T04:12:31.754Z,40.78
2019-05-14T04:15:04.295Z,35.90
2019-05-14T04:17:38.814Z,37.38
2019-05-14T04:20:09.717Z,40.70
2019-05-14T04:22:41.271Z,33.40
2019-05-14T04:25:11.750Z,30.55
2019-05-14T04:27:43.869Z,35.85
2019-05-14T04:30:18.608Z,36.08
2019-05-14T04:32:50.464Z,30.68
2019-05-14T04:35:22.014Z,39.10
2019-05-14T04:37:52.574Z,34.03
2019-05-14T04:40:23.030Z,40.70
2019-05-14T04:42:53.616Z,30.25
2019-05-14T04:45:24.066Z,31.12
2019-05-14T04:47:54.586Z,29.57
2019-05-14T04:50:25.757Z,60.52
2019-05-14T04:52:59.642Z,73.12
2019-05-14T04:55:29.666Z,69.58
2019-05-14T04:58:00.345Z,62.65
2019-05-14T05:00:30.889Z,42.83
2019-05-14T05:03:01.461Z,40.17
2019-05-14T05:05:31.938Z,29.87
2019-05-14T05:08:02.498Z,28.45
2019-05-14T05:10:32.939Z,28.57
2019-05-14T05:13:03.423Z,21.68
2019-05-14T05:15:33.853Z,19.52
2019-05-14T05:18:04.325Z,21.68
2019-05-14T05:20:35.473Z,26.93
2019-05-14T05:23:08.388Z,29.90
2019-05-14T05:25:38.521Z,30.10
2019-05-14T05:28:08.969Z,28.73
2019-05-14T05:30:39.400Z,33.40
2019-05-14T05:33:09.876Z,38.30
2019-05-14T05:35:42.381Z,45.15
2019-05-14T05:38:12.995Z,41.58
2019-05-14T05:40:43.429Z,44.33
2019-05-14T05:43:13.983Z,36.83
2019-05-14T05:45:44.388Z,41.00
2019-05-14T05:48:14.931Z,65.75
2019-05-14T05:50:45.349Z,44.33
2019-05-14T05:53:15.749Z,49.77
2019-05-14T05:55:48.317Z,47.85
2019-05-14T05:58:19.672Z,84.05
2019-05-14T06:00:50.235Z,86.85
2019-05-14T06:03:21.163Z,74.53
2019-05-14T06:05:51.610Z,44.15
2019-05-14T06:08:22.121Z,68.95
2019-05-14T06:10:52.549Z,55.63
2019-05-14T06:13:23.029Z,62.83
2019-05-14T06:15:53.468Z,47.60
2019-05-14T06:18:23.945Z,29.20
2019-05-14T06:20:54.378Z,29.37
2019-05-14T06:23:24.864Z,49.18
2019-05-14T06:25:55.256Z,24.63
2019-05-14T06:28:32.197Z,30.32
2019-05-14T06:30:58.917Z,31.15
2019-05-14T06:33:29.602Z,20.45
2019-05-14T06:36:00.889Z,17.75
2019-05-14T06:38:31.384Z,19.30
2019-05-14T06:41:01.799Z,32.05
2019-05-14T06:43:32.425Z,17.25
2019-05-14T06:46:02.850Z,21.80
2019-05-14T06:48:34.814Z,17.77
2019-05-14T06:51:08.784Z,30.30
2019-05-14T06:53:39.499Z,37.53
2019-05-14T06:56:09.943Z,42.27
2019-05-14T06:58:40.429Z,33.13
2019-05-14T07:01:10.846Z,22.98
2019-05-14T07:03:41.340Z,40.50
2019-05-14T07:06:11.772Z,24.12
2019-05-14T07:08:42.277Z,44.42
2019-05-14T07:11:12.742Z,33.58
2019-05-14T07:13:43.225Z,33.00
2019-05-14T07:16:13.690Z,29.98
2019-05-14T07:18:49.233Z,33.08
2019-05-14T07:21:18.633Z,34.60
2019-05-14T07:23:49.866Z,22.90
2019-05-14T07:26:20.312Z,20.85
2019-05-14T07:28:50.975Z,18.75
2019-05-14T07:31:21.515Z,19.42
2019-05-14T07:33:58.281Z,16.55
2019-05-14T07:36:29.887Z,18.52
2019-05-14T07:39:00.566Z,19.20
2019-05-14T07:41:31.533Z,15.30
2019-05-14T07:44:02.487Z,17.98
2019-05-14T07:46:33.302Z,25.82
2019-05-14T07:49:09.307Z,19.77
2019-05-14T07:51:38.774Z,19.42
2019-05-14T07:54:09.481Z,18.15
2019-05-14T07:56:39.949Z,23.75
2019-05-14T07:59:10.459Z,21.70
2019-05-14T08:01:43.185Z,27.55
2019-05-14T08:04:13.697Z,32.93
2019-05-14T08:06:44.595Z,22.42
2019-05-14T08:09:15.958Z,46.33
2019-05-14T08:11:48.034Z,52.80
2019-05-14T08:14:18.693Z,53.55
2019-05-14T08:16:49.129Z,35.03
2019-05-14T08:19:26.502Z,36.73
2019-05-14T08:21:51.868Z,25.68
2019-05-14T08:24:27.042Z,16.20
2019-05-14T08:27:00.853Z,20.55
2019-05-14T08:29:31.327Z,17.48
2019-05-14T08:32:01.766Z,11.45
2019-05-14T08:34:32.937Z,13.05
2019-05-14T08:37:05.416Z,17.17
2019-05-14T08:39:35.947Z,15.93
2019-05-14T08:42:08.578Z,15.18
2019-05-14T08:44:39.236Z,11.68
2019-05-14T08:47:12.201Z,14.83
2019-05-14T08:49:46.529Z,10.32
2019-05-14T08:52:16.166Z,12.13
2019-05-14T08:54:50.584Z,12.80
2019-05-14T08:57:20.053Z,15.65
2019-05-14T08:59:50.600Z,21.05
2019-05-14T09:02:21.471Z,14.47
2019-05-14T09:05:04.194Z,12.80
2019-05-14T09:07:34.208Z,15.83
2019-05-14T09:10:09.932Z,12.68
2019-05-14T09:12:40.374Z,14.80
2019-05-14T09:15:11.395Z,11.53
2019-05-14T09:17:41.849Z,14.38
2019-05-14T09:20:13.216Z,12.68
2019-05-14T09:22:43.654Z,18.02
2019-05-14T09:25:14.343Z,31.55
2019-05-14T09:27:45.613Z,15.10
2019-05-14T09:30:18.366Z,16.07
2019-05-14T09:33:14.503Z,14.30
2019-05-14T09:36:09.656Z,25.40
2019-05-14T09:38:29.544Z,18.10
2019-05-14T09:41:11.228Z,10.55
2019-05-14T09:43:35.166Z,12.33
2019-05-14T09:46:05.817Z,16.27
2019-05-14T09:48:38.040Z,13.05
2019-05-14T09:51:09.284Z,26.40
2019-05-14T09:53:41.379Z,14.63
2019-05-14T09:56:11.885Z,10.48
2019-05-14T09:58:42.363Z,12.00
2019-05-14T10:01:12.841Z,19.87
2019-05-14T10:03:43.274Z,13.25
2019-05-14T10:06:14.152Z,16.17
2019-05-14T10:08:44.596Z,14.47
2019-05-14T10:11:15.008Z,23.62
2019-05-14T10:13:45.342Z,18.52
2019-05-14T10:16:18.596Z,21.52
2019-05-14T10:18:49.037Z,14.98
2019-05-14T10:21:20.159Z,10.58
2019-05-14T10:23:50.595Z,13.40
2019-05-14T10:26:22.518Z,15.38
2019-05-14T10:28:52.978Z,10.85
2019-05-14T10:31:25.891Z,14.98
2019-05-14T10:33:58.980Z,10.75
2019-05-14T10:36:30.241Z,9.88
2019-05-14T10:39:04.910Z,11.60
2019-05-14T10:41:39.980Z,11.08
2019-05-14T10:44:10.477Z,10.38
2019-05-14T10:46:58.313Z,14.93
2019-05-14T10:49:29.915Z,34.85
2019-05-14T10:52:00.685Z,14.55
2019-05-14T10:54:32.664Z,16.87
2019-05-14T10:57:20.827Z,17.10
2019-05-14T10:59:53.266Z,13.72
2019-05-14T11:02:24.286Z,16.70
2019-05-14T11:04:55.304Z,11.45
2019-05-14T11:07:26.185Z,14.85
2019-05-14T11:09:57.019Z,15.05
2019-05-14T11:12:29.686Z,14.87
2019-05-14T11:15:00.427Z,14.15
2019-05-14T11:17:31.516Z,9.23
2019-05-14T11:20:19.289Z,8.78
2019-05-14T11:22:58.318Z,8.48
2019-05-14T11:25:28.880Z,12.20
2019-05-14T11:28:00.278Z,11.63
2019-05-14T11:30:31.113Z,10.23
2019-05-14T11:33:01.655Z,9.13
2019-05-14T11:35:32.555Z,10.23
2019-05-14T11:38:03.029Z,27.30
2019-05-14T11:40:38.649Z,19.10
2019-05-14T11:43:10.148Z,18.45
2019-05-14T11:45:43.050Z,16.50
2019-05-14T11:48:15.115Z,17.12
2019-05-14T11:50:49.176Z,10.58
2019-05-14T11:53:20.358Z,13.80
2019-05-14T11:55:52.711Z,12.35
2019-05-14T11:58:23.762Z,14.03
2019-05-14T12:00:54.172Z,11.83
2019-05-14T12:03:24.708Z,12.40
2019-05-14T12:05:55.227Z,12.45
2019-05-14T12:08:25.797Z,14.63
2019-05-14T12:10:56.230Z,8.85
2019-05-14T12:13:30.062Z,11.25
2019-05-14T12:15:59.259Z,9.45
2019-05-14T12:18:29.738Z,12.50
2019-05-14T12:21:00.494Z,19.20
2019-05-14T12:23:30.982Z,18.55
2019-05-14T12:26:01.381Z,18.30
2019-05-14T12:28:32.341Z,16.75
2019-05-14T12:31:02.922Z,12.60
2019-05-14T12:33:33.628Z,10.93
2019-05-14T12:36:04.469Z,13.13
2019-05-14T12:38:34.950Z,14.23
2019-05-14T12:41:09.261Z,19.87
2019-05-14T12:43:43.696Z,12.30
2019-05-14T12:46:13.791Z,11.63
2019-05-14T12:48:44.511Z,9.58
2019-05-14T12:51:15.179Z,8.63
2019-05-14T12:53:48.686Z,10.82
2019-05-14T12:56:22.397Z,12.35
2019-05-14T12:58:55.115Z,9.78
2019-05-14T13:01:26.508Z,8.63
2019-05-14T13:03:59.410Z,10.00
2019-05-14T13:06:31.498Z,13.00
2019-05-14T13:09:06.010Z,13.00
2019-05-14T13:11:41.747Z,10.82
2019-05-14T13:14:19.334Z,11.35
2019-05-14T13:16:59.812Z,8.93
2019-05-14T13:19:34.761Z,10.25
2019-05-14T13:22:14.267Z,12.30
2019-05-14T13:24:43.374Z,12.95
2019-05-14T13:27:15.252Z,10.53
2019-05-14T13:29:48.537Z,9.45
2019-05-14T13:32:19.641Z,7.92
2019-05-14T13:34:54.199Z,9.40
2019-05-14T13:37:33.013Z,12.85
2019-05-14T13:40:09.176Z,11.68
2019-05-14T13:42:44.301Z,11.28
2019-05-14T13:45:14.114Z,14.30
2019-05-14T13:47:44.579Z,8.20
2019-05-14T13:50:15.713Z,10.18
2019-05-14T13:52:59.769Z,9.58
2019-05-14T13:55:21.376Z,8.20
2019-05-14T13:57:52.361Z,11.20
2019-05-14T14:00:23.606Z,10.00
2019-05-14T14:02:58.797Z,17.35
2019-05-14T14:05:28.910Z,12.03
2019-05-14T14:07:59.812Z,12.82
2019-05-14T14:10:35.850Z,10.93
2019-05-14T14:13:06.419Z,10.45
2019-05-14T14:15:35.171Z,11.68
2019-05-14T14:18:06.796Z,10.15
2019-05-14T14:20:40.177Z,28.35
2019-05-14T14:23:21.745Z,10.85
2019-05-14T14:25:43.885Z,13.98
2019-05-14T14:28:14.501Z,10.90
2019-05-14T14:30:45.013Z,14.80
2019-05-14T14:33:18.280Z,11.33
2019-05-14T14:35:48.773Z,14.18
2019-05-14T14:38:20.125Z,13.13
2019-05-14T14:40:50.837Z,14.18
2019-05-14T14:43:22.226Z,16.35
2019-05-14T14:45:53.224Z,13.75
2019-05-14T14:48:30.312Z,18.98
2019-05-14T14:50:59.971Z,14.03
2019-05-14T14:53:43.084Z,13.15
2019-05-14T14:56:03.305Z,14.07
2019-05-14T14:58:34.630Z,20.88
2019-05-14T15:01:05.141Z,14.03
2019-05-14T15:03:36.309Z,11.35
2019-05-14T15:06:09.701Z,13.70
2019-05-14T15:08:40.418Z,15.50
2019-05-14T15:11:10.924Z,17.62
2019-05-14T15:13:41.403Z,10.80
2019-05-14T15:16:14.158Z,43.20
2019-05-14T15:18:44.771Z,13.62
2019-05-14T15:21:15.281Z,11.03
2019-05-14T15:24:02.988Z,8.93
2019-05-14T15:26:20.159Z,13.50
2019-05-14T15:28:50.656Z,8.98
2019-05-14T15:31:21.280Z,25.10
2019-05-14T15:33:51.765Z,12.20
2019-05-14T15:36:22.277Z,10.98
2019-05-14T15:38:52.759Z,11.33
2019-05-14T15:41:25.259Z,12.05
2019-05-14T15:43:59.809Z,19.85
2019-05-14T15:46:32.772Z,10.93
2019-05-14T15:49:09.034Z,13.40
2019-05-14T15:51:43.963Z,13.32
2019-05-14T15:54:36.149Z,17.90
2019-05-14T15:56:53.802Z,14.85
2019-05-14T15:59:30.328Z,19.25
2019-05-14T16:02:09.413Z,19.48
2019-05-14T16:04:43.780Z,14.78
2019-05-14T16:07:18.578Z,16.30
2019-05-14T16:09:50.172Z,20.10
2019-05-14T16:12:22.278Z,20.85
2019-05-14T16:14:55.183Z,24.05
2019-05-14T16:17:30.430Z,24.52
2019-05-14T16:20:04.066Z,18.55
2019-05-14T16:22:39.981Z,23.80
2019-05-14T16:25:12.968Z,23.27
2019-05-14T16:27:48.660Z,27.02
2019-05-14T16:30:28.653Z,23.70
2019-05-14T16:33:01.917Z,23.87
2019-05-14T16:35:34.661Z,17.05
2019-05-14T16:38:08.370Z,17.62
2019-05-14T16:40:39.763Z,24.18
2019-05-14T16:43:10.307Z,19.50
2019-05-14T16:45:41.624Z,24.77
2019-05-14T16:48:12.340Z,23.10
2019-05-14T16:50:42.793Z,18.52
2019-05-14T16:53:15.006Z,17.02
2019-05-14T16:55:45.479Z,15.75
2019-05-14T16:58:19.195Z,13.53
2019-05-14T17:00:48.274Z,14.68
2019-05-14T17:03:19.241Z,18.48
2019-05-14T17:05:50.367Z,25.57
2019-05-14T17:08:20.876Z,27.22
2019-05-14T17:10:51.327Z,26.52
2019-05-14T17:13:21.834Z,28.25
2019-05-14T17:15:52.309Z,18.95
2019-05-14T17:18:22.764Z,15.32
2019-05-14T17:20:53.241Z,24.85
2019-05-14T17:23:23.747Z,19.25
2019-05-14T17:25:54.222Z,27.62
2019-05-14T17:28:24.752Z,25.92
2019-05-14T17:30:55.220Z,31.62
2019-05-14T17:33:25.741Z,27.73
2019-05-14T17:35:58.529Z,25.15
2019-05-14T17:38:29.222Z,22.35
2019-05-14T17:41:00.158Z,21.30
2019-05-14T17:43:30.703Z,29.72
2019-05-14T17:46:02.180Z,35.43
2019-05-14T17:48:32.702Z,22.20
2019-05-14T17:51:03.202Z,26.33
2019-05-14T17:53:33.803Z,30.12
2019-05-14T17:56:08.414Z,38.48
2019-05-14T17:58:38.639Z,27.77
2019-05-14T18:01:09.269Z,39.83
2019-05-14T18:03:40.301Z,42.38
2019-05-14T18:06:10.881Z,36.80
2019-05-14T18:08:41.382Z,37.93
2019-05-14T18:11:11.994Z,35.13
2019-05-14T18:13:42.518Z,40.60
2019-05-14T18:16:12.995Z,48.60
2019-05-14T18:18:44.610Z,47.23
2019-05-14T18:21:15.086Z,54.70
2019-05-14T18:23:45.616Z,57.67
2019-05-14T18:26:16.100Z,61.75
2019-05-14T18:28:46.610Z,56.35
2019-05-14T18:31:20.397Z,59.05
2019-05-14T18:33:49.619Z,64.30
2019-05-14T18:36:21.699Z,69.55
2019-05-14T18:38:52.228Z,49.98
2019-05-14T18:41:22.672Z,53.58
2019-05-14T18:43:53.182Z,56.10
2019-05-14T18:46:24.484Z,60.60
2019-05-14T18:48:54.988Z,58.08
2019-05-14T18:51:25.435Z,65.22
2019-05-14T18:53:58.300Z,51.23
2019-05-14T18:56:29.297Z,52.90
2019-05-14T18:58:59.937Z,59.77
2019-05-14T19:01:30.429Z,51.75
2019-05-14T19:04:00.889Z,54.08
2019-05-14T19:06:31.338Z,46.75
2019-05-14T19:09:01.849Z,51.10
2019-05-14T19:11:32.198Z,43.85
2019-05-14T19:14:02.715Z,50.83
2019-05-14T19:16:33.462Z,42.43
2019-05-14T19:19:03.986Z,39.03
2019-05-14T19:21:34.433Z,43.52
2019-05-14T19:24:04.905Z,42.23
2019-05-14T19:26:37.774Z,38.88
2019-05-14T19:29:08.663Z,32.58
2019-05-14T19:31:39.239Z,31.35
2019-05-14T19:34:09.713Z,36.63
2019-05-14T19:36:40.171Z,31.85
2019-05-14T19:39:10.659Z,28.20
2019-05-14T19:41:41.018Z,35.08
2019-05-14T19:44:12.546Z,37.83
2019-05-14T19:46:43.101Z,39.70
2019-05-14T19:49:13.606Z,45.52
2019-05-14T19:51:44.052Z,37.55
2019-05-14T19:54:14.624Z,44.25
2019-05-14T19:56:53.246Z,42.70
2019-05-14T19:59:18.337Z,37.70
2019-05-14T20:01:48.754Z,37.58
2019-05-14T20:04:19.377Z,46.10
2019-05-14T20:06:49.800Z,45.60
2019-05-14T20:09:20.276Z,41.55
2019-05-14T20:11:50.730Z,38.75
2019-05-14T20:14:21.226Z,40.12
2019-05-14T20:16:51.695Z,43.05
2019-05-14T20:19:22.173Z,48.35
2019-05-14T20:21:52.625Z,40.00
2019-05-14T20:24:23.095Z,42.00
2019-05-14T20:27:05.717Z,52.25
2019-05-14T20:29:25.695Z,41.83
2019-05-14T20:31:56.125Z,41.73
2019-05-14T20:34:28.565Z,41.77
2019-05-14T20:36:58.887Z,40.03
2019-05-14T20:39:31.634Z,39.98
2019-05-14T20:42:01.544Z,37.98
2019-05-14T20:44:32.032Z,40.05
2019-05-14T20:47:03.312Z,60.33
2019-05-14T20:49:33.792Z,45.08
2019-05-14T20:52:04.213Z,47.95
2019-05-14T20:54:34.775Z,44.33
2019-05-14T20:57:19.726Z,37.50
2019-05-14T20:59:38.946Z,35.60
2019-05-14T21:02:09.440Z,29.25
2019-05-14T21:04:39.830Z,45.58
2019-05-14T21:07:10.261Z,34.78
2019-05-14T21:09:40.659Z,35.60
2019-05-14T21:12:11.098Z,63.92
2019-05-14T21:14:41.629Z,36.05
2019-05-14T21:17:12.077Z,37.48
2019-05-14T21:19:42.580Z,30.70
2019-05-14T21:22:12.992Z,28.92
2019-05-14T21:24:43.385Z,30.95
2019-05-14T21:27:13.813Z,32.73
2019-05-14T21:29:44.283Z,30.60
2019-05-14T21:32:14.640Z,29.85
2019-05-14T21:34:45.025Z,33.60
2019-05-14T21:37:15.451Z,36.28
2019-05-14T21:39:45.924Z,34.30
2019-05-14T21:42:19.274Z,30.92
2019-05-14T21:44:51.442Z,34.58
2019-05-14T21:47:21.424Z,36.03
2019-05-14T21:49:51.903Z,49.03
2019-05-14T21:52:22.325Z,51.98
2019-05-14T21:54:52.882Z,46.40
2019-05-14T21:57:23.315Z,53.80
2019-05-14T21:59:53.808Z,47.15
2019-05-14T22:02:27.431Z,44.93
2019-05-14T22:04:58.257Z,59.50
2019-05-14T22:07:28.550Z,44.13
2019-05-14T22:09:59.045Z,47.62
2019-05-14T22:12:29.477Z,41.58
2019-05-14T22:14:59.976Z,47.85
2019-05-14T22:17:30.420Z,53.28
2019-05-14T22:20:01.090Z,57.15
2019-05-14T22:22:31.534Z,44.03
2019-05-14T22:25:02.008Z,45.60
2019-05-14T22:27:32.437Z,42.53
2019-05-14T22:30:03.414Z,53.17
2019-05-14T22:32:33.856Z,44.30
2019-05-14T22:35:08.595Z,43.52
2019-05-14T22:37:39.086Z,39.40
2019-05-14T22:40:09.781Z,45.92
2019-05-14T22:42:40.250Z,45.98
2019-05-14T22:45:11.025Z,38.25
2019-05-14T22:47:42.318Z,48.02
2019-05-14T22:50:12.805Z,42.25
2019-05-14T22:52:43.251Z,44.55
2019-05-14T22:55:13.790Z,39.08
2019-05-14T23:34:33.196Z,27.70
2019-05-14T23:47:14.550Z,30.85
2019-05-14T23:49:53.615Z,31.82
2019-05-14T23:52:44.059Z,30.00
2019-05-14T23:55:38.369Z,32.40
2019-05-14T23:59:03.509Z,39.98
